Time;durP1;ratioP1;P1;durP2;ratioP2;P2;SDS_P1;SDS_P2;PMS_P1;PMS_P2;Temp;Humidity;BMP_temperature;BMP_pressure;BME280_temperature;BME280_humidity;BME280_pressure;Samples;Min_cycle;Max_cycle;Signal;HPM_P1;HPM_P2
2021/01/01 00:00:06;;;;;;;90.97;41.77;;;;;;;2.44;69.05;98263.07;251777;1133;115292;-74
2021/01/01 00:05:29;;;;;;;86.33;40.70;;;;;;;2.43;69.32;98266.62;251858;1135;114783;-75
2021/01/01 00:10:32;;;;;;;91.00;43.55;;;;;;;2.43;69.43;98277.13;251909;1133;115034;-77
2021/01/01 00:15:36;;;;;;;;;;;;;;;2.43;69.29;98271.87;251971;1134;116735;-76
2021/01/01 00:20:42;;;;;;;87.23;41.50;;;;;;;2.43;69.55;98271.03;251886;1133;103899;-74
2021/01/01 00:25:46;;;;;;;92.70;40.98;;;;;;;2.45;69.43;98264.80;251785;1132;114699;-74
2021/01/01 00:30:50;;;;;;;88.23;43.20;;;;;;;2.45;69.44;98267.42;251870;1132;114625;-75
2021/01/01 00:35:56;;;;;;;92.83;42.53;;;;;;;2.43;69.53;98274.50;251824;1132;114849;-75
2021/01/01 00:40:58;;;;;;;94.33;42.07;;;;;;;2.49;69.61;98266.38;251918;1135;116219;-75
2021/01/01 00:46:00;;;;;;;88.17;42.43;;;;;;;2.54;70.07;98269.64;251730;1134;115233;-75
2021/01/01 00:51:03;;;;;;;91.10;42.65;;;;;;;2.57;69.54;98279.17;251833;1133;115044;-74
2021/01/01 00:56:19;;;;;;;85.90;41.77;;;;;;;2.58;69.58;98278.25;251715;1132;115183;-74
2021/01/01 01:01:27;;;;;;;91.87;41.43;;;;;;;2.59;69.37;98277.35;251883;1134;115116;-77
2021/01/01 01:06:30;;;;;;;96.50;44.97;;;;;;;2.57;69.45;98276.55;251994;1132;115024;-76
2021/01/01 01:11:33;;;;;;;91.83;42.80;;;;;;;2.62;69.62;98276.38;251758;1132;114875;-75
2021/01/01 01:16:35;;;;;;;100.35;43.65;;;;;;;2.57;69.57;98280.03;251698;1133;115014;-75
2021/01/01 01:21:37;;;;;;;99.20;42.73;;;;;;;2.54;69.23;98282.78;251922;1132;115812;-76
2021/01/01 01:26:40;;;;;;;90.40;40.07;;;;;;;2.54;69.56;98277.52;251948;1132;115183;-74
2021/01/01 01:31:42;;;;;;;84.73;40.43;;;;;;;2.58;69.30;98275.62;251663;1132;114925;-74
2021/01/01 01:36:44;;;;;;;81.93;38.10;;;;;;;2.58;69.55;98276.50;251916;1131;114796;-74
2021/01/01 01:41:47;;;;;;;85.42;39.98;;;;;;;2.57;69.44;98277.40;251787;1132;115705;-76
2021/01/01 01:46:50;;;;;;;81.90;38.50;;;;;;;2.57;69.86;98284.43;251723;1132;114879;-76
2021/01/01 01:51:53;;;;;;;90.60;41.53;;;;;;;2.54;69.50;98288.03;251966;1132;114957;-75
2021/01/01 01:56:57;;;;;;;90.13;39.30;;;;;;;2.53;69.36;98288.11;251812;1132;116020;-76
2021/01/01 02:01:59;;;;;;;91.90;39.87;;;;;;;2.53;69.66;98296.84;251851;1132;114839;-78
2021/01/01 02:07:03;;;;;;;93.60;38.38;;;;;;;2.54;69.52;98293.28;251919;1133;115331;-76
2021/01/01 02:12:07;;;;;;;82.62;36.13;;;;;;;2.63;70.09;98293.84;251803;1132;115169;-75
2021/01/01 02:17:11;;;;;;;71.23;32.90;;;;;;;2.57;69.55;98295.78;252132;1133;114831;-72
2021/01/01 02:22:15;;;;;;;73.80;31.90;;;;;;;2.47;69.27;98288.36;251864;1134;114948;-72
2021/01/01 02:27:18;;;;;;;69.23;29.60;;;;;;;2.41;69.53;98283.35;251757;1132;117260;-73
2021/01/01 02:32:21;;;;;;;67.75;32.63;;;;;;;2.34;69.44;98272.25;252035;1132;114547;-71
2021/01/01 02:37:23;;;;;;;70.97;32.03;;;;;;;2.31;69.31;98282.88;251755;1135;115077;-73
2021/01/01 02:42:26;;;;;;;70.40;30.90;;;;;;;2.30;69.05;98275.92;251916;1133;115070;-73
2021/01/01 02:47:30;;;;;;;71.37;31.37;;;;;;;2.28;69.53;98278.63;251844;1133;115919;-72
2021/01/01 02:52:34;;;;;;;;;;;;;;;2.31;69.67;98272.38;251898;1134;115302;-72
2021/01/01 02:57:38;;;;;;;59.20;28.10;;;;;;;2.29;69.35;98266.34;252085;1134;102180;-72
2021/01/01 03:02:40;;;;;;;54.57;25.57;;;;;;;2.26;69.39;98279.59;251632;1132;115383;-75
2021/01/01 03:07:43;;;;;;;59.20;27.20;;;;;;;2.20;69.02;98275.44;251796;1134;114568;-73
2021/01/01 03:12:45;;;;;;;62.67;28.13;;;;;;;2.16;69.37;98273.86;251662;1133;115529;-72
2021/01/01 03:17:48;;;;;;;63.80;28.20;;;;;;;2.15;69.68;98276.56;251683;1135;115090;-74
2021/01/01 03:22:52;;;;;;;65.15;28.77;;;;;;;2.16;69.49;98273.02;251735;1132;115336;-74
2021/01/01 03:27:55;;;;;;;70.03;30.87;;;;;;;2.08;69.36;98279.42;251973;1132;114764;-74
2021/01/01 03:32:57;;;;;;;69.47;29.10;;;;;;;2.10;69.59;98274.10;251907;1132;114918;-74
2021/01/01 03:38:00;;;;;;;62.83;30.90;;;;;;;2.18;69.86;98276.44;251745;1132;115231;-74
2021/01/01 03:43:03;;;;;;;67.27;29.33;;;;;;;2.15;69.87;98281.81;251819;1132;114894;-74
2021/01/01 03:48:07;;;;;;;66.95;31.17;;;;;;;2.17;69.89;98287.83;252108;1134;116994;-73
2021/01/01 03:53:09;;;;;;;68.23;29.13;;;;;;;2.18;69.65;98279.91;251537;1133;115265;-74
2021/01/01 03:58:13;;;;;;;66.93;30.00;;;;;;;2.17;69.77;98283.44;251851;1132;114890;-74
2021/01/01 04:03:17;;;;;;;69.07;30.60;;;;;;;2.13;69.41;98287.95;252011;1133;114730;-74
2021/01/01 04:08:19;;;;;;;67.00;30.27;;;;;;;2.04;69.11;98288.34;251727;1132;114699;-74
2021/01/01 04:13:21;;;;;;;62.88;28.15;;;;;;;2.02;69.51;98287.53;251902;1133;115001;-75
2021/01/01 04:18:23;;;;;;;69.20;32.50;;;;;;;2.03;69.90;98283.98;251959;1135;114754;-74
2021/01/01 04:23:25;;;;;;;72.45;32.42;;;;;;;2.05;69.61;98279.55;251768;1135;115260;-74
2021/01/01 04:28:28;;;;;;;69.70;33.73;;;;;;;2.10;69.68;98277.58;251906;1133;114901;-73
2021/01/01 04:33:30;;;;;;;72.17;34.17;;;;;;;2.14;69.81;98275.71;252044;1132;114890;-74
2021/01/01 04:38:33;;;;;;;77.82;32.50;;;;;;;2.18;69.72;98279.06;251852;1131;114824;-73
2021/01/01 04:43:36;;;;;;;73.23;32.40;;;;;;;2.25;69.81;98284.00;251910;1132;114783;-74
2021/01/01 04:48:39;;;;;;;66.17;31.67;;;;;;;2.31;69.79;98288.13;250205;1132;114740;-73
2021/01/01 04:53:42;;;;;;;73.40;33.10;;;;;;;2.31;69.65;98290.75;251967;1132;114834;-73
2021/01/01 04:58:45;;;;;;;67.60;30.60;;;;;;;2.33;69.92;98296.80;251790;1132;114916;-73
2021/01/01 05:03:47;;;;;;;72.58;31.35;;;;;;;2.34;70.10;98298.50;251898;1134;115271;-73
2021/01/01 05:08:50;;;;;;;78.50;34.27;;;;;;;2.34;69.86;98307.26;251816;1132;114981;-73
2021/01/01 05:14:01;;;;;;;81.90;36.20;;;;;;;2.36;69.68;98312.44;251976;1132;115012;-73
2021/01/01 05:19:12;;;;;;;90.70;37.88;;;;;;;2.33;69.87;98313.41;251891;1135;115360;-73
2021/01/01 05:24:16;;;;;;;86.60;37.97;;;;;;;2.34;69.75;98324.75;251777;1133;114794;-73
2021/01/01 05:29:21;;;;;;;84.70;34.58;;;;;;;2.32;69.63;98332.70;251925;1135;114844;-74
2021/01/01 05:34:25;;;;;;;76.33;33.77;;;;;;;2.27;69.66;98337.27;252072;1132;115451;-71
2021/01/01 05:39:27;;;;;;;66.03;31.70;;;;;;;2.18;69.53;98347.30;251492;1134;115284;-73
2021/01/01 05:44:33;;;;;;;79.60;34.47;;;;;;;2.13;69.58;98343.06;251924;1136;115063;-73
2021/01/01 05:49:38;;;;;;;84.27;34.70;;;;;;;2.17;69.84;98330.67;251366;1134;114831;-74
2021/01/01 05:54:42;;;;;;;85.57;35.90;;;;;;;2.20;69.76;98335.81;251719;1132;115049;-73
2021/01/01 05:59:46;;;;;;;90.32;36.53;;;;;;;2.22;69.43;98352.36;251807;1133;115578;-73
2021/01/01 06:04:51;;;;;;;89.10;35.73;;;;;;;2.21;69.99;98345.41;251808;1134;115182;-74
2021/01/01 06:09:54;;;;;;;88.73;35.93;;;;;;;2.24;70.28;98349.66;251497;1132;114974;-73
2021/01/01 06:15:00;;;;;;;85.47;36.53;;;;;;;2.28;69.87;98346.87;251837;1134;114891;-74
2021/01/01 06:20:05;;;;;;;76.20;34.00;;;;;;;2.26;69.75;98353.95;251662;1134;114928;-73
2021/01/01 06:25:10;;;;;;;77.70;34.08;;;;;;;2.26;69.62;98364.45;251783;1132;114786;-74
2021/01/01 06:30:14;;;;;;;85.23;35.43;;;;;;;2.26;70.34;98367.08;251594;1132;114959;-73
2021/01/01 06:35:24;;;;;;;89.73;36.20;;;;;;;2.29;70.13;98356.45;251783;1134;114944;-74
2021/01/01 06:40:34;;;;;;;80.73;34.13;;;;;;;2.42;70.19;98354.20;251895;1132;115280;-74
2021/01/01 06:45:44;;;;;;;76.00;33.23;;;;;;;2.52;69.98;98359.94;252054;1132;114990;-74
2021/01/01 06:50:51;;;;;;;84.93;34.90;;;;;;;2.49;69.95;98362.69;251917;1132;114786;-72
2021/01/01 06:56:08;;;;;;;79.90;34.00;;;;;;;2.41;69.59;98367.38;252032;1132;114848;-74
2021/01/01 07:01:15;;;;;;;81.30;36.23;;;;;;;2.34;69.01;98362.39;251901;1135;116234;-73
2021/01/01 07:06:17;;;;;;;84.43;34.10;;;;;;;2.37;69.88;98377.14;251955;1135;114877;-72
2021/01/01 07:11:22;;;;;;;82.97;34.23;;;;;;;2.43;69.88;98378.69;252082;1132;114881;-72
2021/01/01 07:16:25;;;;;;;;;;;;;;;2.44;69.77;98378.61;251961;1133;114787;-73
2021/01/01 07:21:28;;;;;;;83.13;34.90;;;;;;;2.47;69.93;98375.86;252131;1132;102247;-72
2021/01/01 07:26:30;;;;;;;83.03;34.10;;;;;;;2.51;69.74;98390.58;251967;1135;115137;-72
2021/01/01 07:31:33;;;;;;;77.60;32.80;;;;;;;2.44;69.56;98383.86;251958;1135;115113;-72
2021/01/01 07:36:36;;;;;;;77.30;31.40;;;;;;;2.43;69.93;98387.41;251944;1133;114764;-73
2021/01/01 07:41:38;;;;;;;76.70;31.90;;;;;;;2.41;69.27;98378.73;251902;1132;115010;-74
2021/01/01 07:46:41;;;;;;;71.93;32.10;;;;;;;2.34;69.45;98374.64;251996;1134;114891;-74
2021/01/01 07:51:43;;;;;;;77.43;32.73;;;;;;;2.38;69.34;98386.75;251821;1132;114908;-75
2021/01/01 07:56:49;;;;;;;75.93;32.60;;;;;;;2.46;69.75;98394.32;251941;1140;115214;-72
2021/01/01 08:01:51;;;;;;;80.03;33.78;;;;;;;2.48;69.65;98382.84;252199;1132;114835;-73
2021/01/01 08:06:54;;;;;;;75.57;32.23;;;;;;;2.53;69.87;98399.26;251773;1132;114909;-72
2021/01/01 08:12:04;;;;;;;68.17;31.23;;;;;;;2.51;68.87;98395.83;251717;1132;114814;-73
2021/01/01 08:17:29;;;;;;;66.20;29.70;;;;;;;2.45;69.42;98395.25;251737;1135;115192;-73
2021/01/01 08:22:36;;;;;;;68.83;30.60;;;;;;;2.38;69.42;98415.64;251815;1134;116219;-75
2021/01/01 08:27:39;;;;;;;76.20;31.95;;;;;;;2.35;69.50;98418.38;251870;1132;114853;-74
2021/01/01 08:32:43;;;;;;;73.67;30.50;;;;;;;2.42;69.88;98414.59;251979;1133;114822;-74
2021/01/01 08:37:45;;;;;;;74.33;31.07;;;;;;;2.56;70.07;98421.92;251981;1135;115481;-73
2021/01/01 08:42:53;;;;;;;61.73;27.70;;;;;;;2.64;70.13;98406.70;251866;1134;116022;-73
2021/01/01 08:47:55;;;;;;;59.60;25.33;;;;;;;2.60;69.39;98416.48;251894;1132;114779;-74
2021/01/01 08:53:03;;;;;;;67.70;28.45;;;;;;;2.50;69.23;98409.88;251670;1132;114946;-73
2021/01/01 08:58:14;;;;;;;63.93;29.27;;;;;;;2.48;69.33;98422.23;251871;1134;114972;-74
2021/01/01 09:03:20;;;;;;;70.57;30.30;;;;;;;2.47;69.53;98415.25;252004;1133;115053;-75
2021/01/01 09:08:24;;;;;;;67.63;28.87;;;;;;;2.47;69.62;98401.27;251849;1135;114890;-72
2021/01/01 09:13:30;;;;;;;69.03;30.57;;;;;;;2.50;69.55;98409.03;251951;1133;114806;-71
2021/01/01 09:18:32;;;;;;;67.37;29.87;;;;;;;2.50;69.63;98420.39;251841;1132;114719;-75
2021/01/01 09:23:35;;;;;;;80.53;36.73;;;;;;;2.62;70.44;98410.33;251742;1132;114980;-74
2021/01/01 09:28:38;;;;;;;76.63;32.53;;;;;;;2.86;70.08;98417.22;251622;1132;114877;-71
2021/01/01 09:33:40;;;;;;;73.73;31.43;;;;;;;2.86;69.55;98422.47;251873;1133;115438;-74
2021/01/01 09:38:42;;;;;;;63.17;27.23;;;;;;;2.89;69.81;98418.84;251695;1135;114954;-74
2021/01/01 09:43:45;;;;;;;54.03;25.50;;;;;;;2.90;69.35;98415.31;252111;1133;115125;-72
2021/01/01 09:48:47;;;;;;;63.97;28.77;;;;;;;2.79;69.11;98421.86;251806;1134;114975;-72
2021/01/01 09:53:50;;;;;;;58.47;25.17;;;;;;;2.72;69.15;98427.44;252064;1134;114910;-73
2021/01/01 09:58:53;;;;;;;63.37;28.00;;;;;;;2.66;69.69;98415.39;251985;1134;114863;-76
2021/01/01 10:03:55;;;;;;;68.30;29.13;;;;;;;2.67;69.30;98417.09;252070;1134;114810;-72
2021/01/01 10:08:57;;;;;;;65.32;27.35;;;;;;;2.78;69.79;98420.13;251975;1133;114755;-73
2021/01/01 10:14:00;;;;;;;53.03;25.30;;;;;;;2.82;69.39;98415.64;252154;1132;114705;-75
2021/01/01 10:19:02;;;;;;;63.57;27.37;;;;;;;2.75;69.17;98422.03;251939;1133;115158;-71
2021/01/01 10:24:05;;;;;;;68.47;29.37;;;;;;;2.73;69.34;98413.38;251883;1132;114702;-71
2021/01/01 10:29:08;;;;;;;64.83;29.77;;;;;;;2.74;69.41;98409.82;252067;1132;115119;-73
2021/01/01 10:34:10;;;;;;;76.12;32.63;;;;;;;2.79;69.72;98410.50;252059;1135;114960;-73
2021/01/01 10:39:13;;;;;;;78.17;32.97;;;;;;;2.84;69.51;98404.12;251947;1132;115123;-73
2021/01/01 10:44:16;;;;;;;78.70;33.50;;;;;;;2.89;69.41;98403.07;250211;1133;115282;-71
2021/01/01 10:49:22;;;;;;;81.17;33.00;;;;;;;2.94;69.55;98391.47;249797;1132;114914;-73
2021/01/01 10:54:25;;;;;;;80.60;32.50;;;;;;;3.00;69.67;98393.84;251490;1134;115744;-73
2021/01/01 10:59:28;;;;;;;76.17;34.45;;;;;;;3.12;69.69;98388.98;251855;1134;115089;-73
2021/01/01 11:04:30;;;;;;;83.23;34.10;;;;;;;3.21;70.06;98380.70;251908;1135;114885;-73
2021/01/01 11:09:33;;;;;;;82.45;33.80;;;;;;;3.15;69.09;98387.07;251528;1132;114928;-73
2021/01/01 11:15:17;;;;;;;79.33;33.43;;;;;;;3.12;69.62;98381.94;251877;1132;115105;-73
2021/01/01 12:19:42;;;;;;;96.75;42.00;;;;;;;2.96;69.19;98392.27;251740;1132;114876;-78
2021/01/01 12:29:38;;;;;;;93.33;42.23;;;;;;;2.99;69.44;98400.03;251901;1132;114616;-79
2021/01/01 12:34:42;;;;;;;98.80;42.97;;;;;;;3.01;68.93;98399.95;251831;1133;114803;-79
2021/01/01 12:39:44;;;;;;;92.80;41.57;;;;;;;3.02;68.89;98396.39;251785;1135;115575;-76
2021/01/01 12:44:47;;;;;;;90.90;42.60;;;;;;;3.10;69.49;98401.34;251971;1134;116383;-75
2021/01/01 12:49:49;;;;;;;91.50;42.50;;;;;;;3.13;68.86;98402.08;252085;1135;114863;-75
2021/01/01 12:54:51;;;;;;;93.60;41.43;;;;;;;3.15;69.33;98408.10;251903;1133;115202;-73
2021/01/01 12:59:54;;;;;;;89.50;41.17;;;;;;;3.15;69.09;98415.98;251900;1136;116521;-73
2021/01/01 13:04:56;;;;;;;98.03;42.90;;;;;;;3.15;69.60;98409.88;251726;1135;114894;-77
2021/01/01 13:10:00;;;;;;;95.53;41.93;;;;;;;3.10;69.36;98419.75;251816;1135;115087;-76
2021/01/01 13:15:04;;;;;;;97.10;41.13;;;;;;;3.05;69.19;98431.28;251722;1133;115162;-75
2021/01/01 13:20:07;;;;;;;106.13;43.67;;;;;;;3.03;69.30;98422.63;252148;1132;115149;-76
2021/01/01 13:25:11;;;;;;;93.70;42.33;;;;;;;3.05;69.12;98423.41;251865;1132;115286;-76
2021/01/01 13:30:17;;;;;;;96.03;40.87;;;;;;;3.07;69.19;98418.95;251631;1133;115169;-76
2021/01/01 13:35:20;;;;;;;90.57;39.75;;;;;;;3.10;69.68;98423.23;251993;1136;115139;-76
2021/01/01 13:40:22;;;;;;;89.83;40.23;;;;;;;3.13;69.42;98420.48;252163;1132;114872;-76
2021/01/01 13:45:24;;;;;;;75.20;34.77;;;;;;;3.16;69.55;98424.72;251744;1133;115468;-78
2021/01/01 13:50:26;;;;;;;76.37;33.80;;;;;;;3.11;69.53;98422.30;252056;1133;116871;-78
2021/01/01 13:55:29;;;;;;;80.77;36.40;;;;;;;3.14;69.88;98418.70;251932;1135;115040;-80
2021/01/01 14:00:31;;;;;;;78.40;33.60;;;;;;;3.13;69.61;98425.73;250531;1134;114979;-79
2021/01/01 14:05:34;;;;;;;83.07;37.57;;;;;;;3.13;69.78;98419.62;251220;1132;114947;-76
2021/01/01 14:10:36;;;;;;;78.43;36.03;;;;;;;3.15;69.37;98429.14;251807;1135;114879;-79
2021/01/01 14:15:39;;;;;;;76.35;34.00;;;;;;;3.23;69.54;98429.69;251834;1133;115208;-83
2021/01/01 14:20:43;;;;;;;72.00;35.47;;;;;;;3.26;69.83;98431.31;251733;1133;114984;-78
2021/01/01 14:25:45;;;;;;;72.78;34.58;;;;;;;3.28;69.71;98424.22;251722;1135;114973;-78
2021/01/01 14:30:47;;;;;;;61.53;31.00;;;;;;;3.25;69.62;98435.72;251845;1135;115717;-79
2021/01/01 14:35:50;;;;;;;65.73;32.27;;;;;;;3.18;69.52;98441.30;252029;1132;114892;-78
2021/01/01 14:40:53;;;;;;;69.70;32.37;;;;;;;3.08;69.17;98453.97;251719;1132;114780;-80
2021/01/01 14:46:03;;;;;;;63.63;30.60;;;;;;;2.97;69.56;98448.31;251779;1134;114766;-78
2021/01/01 14:51:06;;;;;;;72.27;33.92;;;;;;;2.92;69.43;98461.64;251435;1133;115433;-79
2021/01/01 14:56:09;;;;;;;72.90;32.50;;;;;;;2.94;69.31;98475.56;251107;1132;114793;-78
2021/01/01 15:01:13;;;;;;;67.05;31.60;;;;;;;2.95;69.53;98473.78;251754;1132;115004;-81
2021/01/01 15:06:18;;;;;;;62.20;29.83;;;;;;;2.98;69.33;98469.26;251706;1134;115034;-81
2021/01/01 15:11:23;;;;;;;61.60;27.87;;;;;;;2.93;69.23;98480.89;251669;1133;115088;-84
2021/01/01 15:16:29;;;;;;;72.77;31.67;;;;;;;2.87;69.46;98476.73;251851;1136;115915;-86
2021/01/01 15:21:31;;;;;;;70.97;31.93;;;;;;;2.83;69.92;98480.40;251766;1134;116614;-84
2021/01/01 15:26:34;;;;;;;63.67;29.30;;;;;;;2.77;69.43;98488.52;251573;1133;114840;-86
2021/01/01 15:31:36;;;;;;;70.70;32.23;;;;;;;2.69;69.87;98487.98;251760;1134;114763;-85
2021/01/01 15:36:40;;;;;;;76.07;31.60;;;;;;;2.69;69.73;98486.20;251332;1134;115998;-75
2021/01/01 15:41:46;;;;;;;77.53;32.50;;;;;;;2.73;69.90;98474.65;251624;1135;115109;-83
2021/01/01 15:46:49;;;;;;;86.93;34.83;;;;;;;2.78;69.85;98487.59;251575;1133;115024;-83
2021/01/01 15:51:52;;;;;;;80.90;34.07;;;;;;;2.83;70.02;98490.91;251753;1134;115402;-86
2021/01/01 15:56:55;;;;;;;80.93;34.73;;;;;;;2.75;69.71;98483.34;251795;1132;114953;-83
2021/01/01 16:01:58;;;;;;;82.27;33.40;;;;;;;2.67;69.52;98493.27;251568;1134;115079;-84
2021/01/01 16:07:01;;;;;;;75.47;31.68;;;;;;;2.64;69.88;98495.16;251672;1133;114957;-84
2021/01/01 16:12:05;;;;;;;89.63;35.80;;;;;;;2.60;69.91;98500.53;251699;1132;115038;-81
2021/01/01 16:17:19;;;;;;;83.27;34.37;;;;;;;2.64;70.15;98496.02;251674;1134;115276;-78
2021/01/01 16:22:42;;;;;;;93.83;37.27;;;;;;;2.70;70.36;98494.93;251654;1132;114861;-81
2021/01/01 16:27:48;;;;;;;86.42;33.63;;;;;;;2.74;70.36;98491.27;251496;1133;114832;-81
2021/01/01 16:32:57;;;;;;;116.57;39.10;;;;;;;2.76;70.29;98489.45;251703;1133;115402;-81
2021/01/01 16:38:00;;;;;;;89.97;37.03;;;;;;;2.83;70.70;98491.77;251418;1133;115536;-80
2021/01/01 16:43:04;;;;;;;;;;;;;;;2.82;70.37;98504.97;251695;1133;115065;-81
2021/01/01 16:48:07;;;;;;;95.05;38.15;;;;;;;2.78;69.73;98509.46;251662;1134;102984;-72
2021/01/01 16:53:10;;;;;;;93.67;39.50;;;;;;;2.77;70.31;98509.54;251342;1134;114708;-79
2021/01/01 16:58:17;;;;;;;94.90;39.80;;;;;;;2.81;70.23;98519.86;251700;1134;115141;-80
2021/01/01 17:03:19;;;;;;;100.10;39.33;;;;;;;2.88;70.43;98517.84;251861;1135;114950;-80
2021/01/01 17:08:23;;;;;;;98.03;40.67;;;;;;;2.90;70.36;98529.16;251752;1134;115049;-78
2021/01/01 17:13:32;;;;;;;95.80;39.50;;;;;;;2.92;70.42;98534.34;251518;1133;115297;-81
2021/01/01 17:18:34;;;;;;;82.30;35.13;;;;;;;2.97;70.47;98542.92;251549;1135;114555;-81
2021/01/01 17:23:37;;;;;;;92.25;36.30;;;;;;;3.00;70.43;98551.55;251951;1134;114888;-82
2021/01/01 17:28:40;;;;;;;85.37;35.70;;;;;;;2.93;69.98;98549.22;251759;1134;114786;-82
2021/01/01 17:33:46;;;;;;;80.80;36.10;;;;;;;2.84;70.31;98560.93;251710;1134;114925;-78
2021/01/01 17:38:50;;;;;;;99.70;38.70;;;;;;;2.82;70.32;98557.52;251838;1135;114868;-78
2021/01/01 17:43:53;;;;;;;92.77;37.40;;;;;;;2.85;70.42;98562.63;251978;1133;115863;-75
2021/01/01 17:48:55;;;;;;;82.65;35.08;;;;;;;2.91;70.36;98557.14;251942;1134;116342;-78
2021/01/01 17:53:58;;;;;;;82.27;34.33;;;;;;;2.90;70.22;98568.59;251682;1134;114863;-80
2021/01/01 17:59:00;;;;;;;74.13;32.77;;;;;;;2.83;70.06;98573.22;252016;1132;114673;-81
2021/01/01 18:04:03;;;;;;;80.30;34.53;;;;;;;2.74;70.25;98573.56;251985;1134;115059;-81
2021/01/01 18:09:06;;;;;;;88.37;35.43;;;;;;;2.73;70.22;98581.52;251600;1133;114803;-80
2021/01/01 18:14:08;;;;;;;77.83;33.70;;;;;;;2.69;70.37;98583.40;251933;1132;114871;-77
2021/01/01 18:19:11;;;;;;;95.83;37.37;;;;;;;2.68;69.96;98586.06;251946;1132;114869;-81
2021/01/01 18:24:13;;;;;;;87.07;36.10;;;;;;;2.71;70.45;98585.95;251617;1132;114834;-81
2021/01/01 18:29:17;;;;;;;83.67;34.63;;;;;;;2.73;70.14;98597.28;251829;1130;114936;-80
2021/01/01 18:34:28;;;;;;;86.57;35.03;;;;;;;2.74;70.41;98591.09;251922;1132;114889;-81
2021/01/01 18:39:32;;;;;;;79.95;33.48;;;;;;;2.79;70.67;98600.53;251689;1132;114811;-80
2021/01/01 18:44:35;;;;;;;77.40;31.20;;;;;;;2.75;70.23;98598.94;251790;1134;115625;-80
2021/01/01 18:49:45;;;;;;;62.57;28.63;;;;;;;2.70;70.12;98594.77;251927;1134;114968;-82
2021/01/01 18:54:47;;;;;;;61.07;25.17;;;;;;;2.62;70.56;98605.56;251874;1132;115038;-80
2021/01/01 19:00:01;;;;;;;69.20;30.50;;;;;;;2.53;70.00;98616.39;251913;1132;114923;-80
2021/01/01 19:05:10;;;;;;;75.17;31.33;;;;;;;2.53;70.16;98619.88;251856;1132;114860;-82
2021/01/01 19:10:16;;;;;;;73.43;32.77;;;;;;;2.52;69.97;98619.94;251851;1134;115316;-80
2021/01/01 19:15:24;;;;;;;69.70;29.93;;;;;;;2.58;70.31;98617.95;251810;1132;114990;-79
2021/01/01 19:20:28;;;;;;;74.50;32.33;;;;;;;2.65;71.00;98612.45;251793;1132;115052;-78
2021/01/01 19:25:32;;;;;;;67.55;29.77;;;;;;;2.74;70.56;98620.85;250393;1132;114906;-84
2021/01/01 19:30:54;;;;;;;82.10;31.80;;;;;;;2.63;70.22;98619.55;251861;1132;114857;-84
2021/01/01 19:35:56;;;;;;;83.43;32.50;;;;;;;2.55;70.79;98614.58;251736;1134;114826;-84
2021/01/01 19:41:06;;;;;;;79.53;35.43;;;;;;;2.50;70.39;98630.48;251744;1132;115058;-84
2021/01/01 19:46:22;;;;;;;77.67;32.93;;;;;;;2.54;70.52;98634.70;251894;1132;114799;-82
2021/01/01 19:51:37;;;;;;;70.55;31.30;;;;;;;2.50;70.45;98650.64;251688;1134;115704;-81
2021/01/01 19:56:48;;;;;;;69.50;29.00;;;;;;;2.46;70.76;98665.66;251801;1134;115479;-82
2021/01/01 20:01:53;;;;;;;76.10;31.43;;;;;;;2.42;70.22;98666.67;251766;1132;115028;-86
2021/01/01 20:07:00;;;;;;;77.30;29.53;;;;;;;2.41;70.54;98661.47;251880;1132;115112;-86
2021/01/01 20:12:41;;;;;;;84.73;35.17;;;;;;;2.40;70.62;98675.52;251778;1132;115088;-82
2021/01/01 20:17:56;;;;;;;79.37;33.80;;;;;;;2.41;70.60;98675.45;251674;1135;114790;-82
2021/01/01 20:23:03;;;;;;;88.90;33.70;;;;;;;2.48;70.58;98676.97;251952;1132;114850;-81
2021/01/01 20:28:26;;;;;;;82.60;34.53;;;;;;;2.52;70.59;98680.34;252070;1133;115275;-81
2021/01/01 20:33:31;;;;;;;78.43;33.30;;;;;;;2.53;70.80;98685.53;251973;1134;115029;-81
2021/01/01 20:38:36;;;;;;;82.23;33.87;;;;;;;2.55;71.06;98685.50;251817;1134;114905;-80
2021/01/01 20:44:02;;;;;;;75.90;32.57;;;;;;;2.51;70.65;98692.59;251800;1134;114716;-81
2021/01/01 21:00:12;;;;;;;;;;;;;;;2.41;70.58;98712.20;252139;1134;114773;-81
2021/01/01 21:05:16;;;;;;;83.90;32.97;;;;;;;2.33;70.79;98716.88;251985;1132;104051;-81
2021/01/01 21:10:37;;;;;;;82.33;35.47;;;;;;;2.33;71.01;98716.88;251891;1132;114760;-81
2021/01/01 21:15:47;;;;;;;80.32;34.78;;;;;;;2.38;70.84;98725.47;252002;1134;114946;-81
2021/01/01 21:21:31;;;;;;;81.80;35.30;;;;;;;2.43;70.96;98726.16;252099;1132;114975;-81
2021/01/01 21:26:52;;;;;;;80.35;34.50;;;;;;;2.43;70.50;98727.93;251700;1132;114831;-77
2021/01/01 21:32:24;;;;;;;83.17;33.33;;;;;;;2.42;70.71;98729.70;252010;1132;114924;-78
2021/01/01 21:37:47;;;;;;;88.73;35.13;;;;;;;2.43;71.00;98730.55;251396;1134;115104;-78
2021/01/01 21:43:11;;;;;;;77.15;33.38;;;;;;;2.47;70.90;98737.41;251930;1132;114995;-77
2021/01/01 21:48:23;;;;;;;82.50;35.97;;;;;;;2.51;70.80;98739.02;251890;1134;115103;-78
2021/01/01 21:53:26;;;;;;;77.87;32.93;;;;;;;2.53;70.74;98735.44;251812;1133;114862;-77
2021/01/01 21:58:29;;;;;;;78.83;33.17;;;;;;;2.48;70.70;98740.00;251985;1132;114991;-77
2021/01/01 22:03:34;;;;;;;71.97;31.20;;;;;;;2.42;70.38;98742.83;251679;1134;114795;-77
2021/01/01 22:08:37;;;;;;;82.30;34.25;;;;;;;2.41;70.73;98748.12;251718;1133;115045;-76
2021/01/01 22:13:39;;;;;;;81.00;33.67;;;;;;;2.47;70.17;98738.27;251711;1133;115234;-77
2021/01/01 22:18:42;;;;;;;74.20;33.53;;;;;;;2.49;70.67;98746.11;251975;1135;114923;-75
2021/01/01 22:23:45;;;;;;;74.13;33.83;;;;;;;2.51;70.86;98747.75;251529;1133;114772;-74
2021/01/01 22:28:47;;;;;;;63.33;27.93;;;;;;;2.48;70.41;98747.00;251914;1134;115232;-76
2021/01/01 22:33:49;;;;;;;62.65;28.83;;;;;;;2.40;70.36;98749.04;251898;1132;115155;-75
2021/01/01 22:38:52;;;;;;;68.97;30.27;;;;;;;2.35;70.34;98746.58;251837;1132;115184;-76
2021/01/01 22:43:54;;;;;;;78.70;34.10;;;;;;;2.32;70.76;98742.28;251795;1133;115041;-77
2021/01/01 22:48:57;;;;;;;77.73;33.60;;;;;;;2.35;70.83;98749.20;251906;1135;114586;-76
2021/01/01 22:54:00;;;;;;;79.30;33.80;;;;;;;2.47;70.75;98745.29;251819;1132;114534;-77
2021/01/01 22:59:11;;;;;;;78.92;34.13;;;;;;;2.52;70.61;98741.61;251922;1132;115062;-77
2021/01/01 23:04:17;;;;;;;74.03;33.10;;;;;;;2.56;70.69;98735.33;251664;1134;114742;-78
2021/01/01 23:09:23;;;;;;;73.03;31.50;;;;;;;2.58;70.45;98754.54;251693;1134;115624;-77
2021/01/01 23:14:27;;;;;;;69.90;30.57;;;;;;;2.52;70.44;98754.73;251987;1132;115414;-76
2021/01/01 23:19:44;;;;;;;72.05;31.37;;;;;;;2.48;70.41;98758.39;251794;1132;115074;-75
2021/01/01 23:25:07;;;;;;;69.43;33.80;;;;;;;2.49;70.61;98760.09;251767;1132;114970;-75
2021/01/01 23:30:14;;;;;;;72.33;33.07;;;;;;;2.53;70.50;98766.95;251834;1134;115382;-75
2021/01/01 23:35:19;;;;;;;80.03;34.80;;;;;;;2.54;70.70;98766.03;251967;1132;115197;-75
2021/01/01 23:40:45;;;;;;;65.10;30.20;;;;;;;2.51;70.67;98774.02;249451;1132;115275;-76
2021/01/01 23:45:55;;;;;;;66.40;31.93;;;;;;;2.47;70.37;98767.16;251859;1132;114798;-76
2021/01/01 23:50:58;;;;;;;71.62;32.90;;;;;;;2.43;70.66;98773.42;251745;1132;115339;-76
2021/01/01 23:56:01;;;;;;;69.33;31.93;;;;;;;2.45;70.73;98782.13;251548;1133;115462;-76
